Time;durP1;ratioP1;P1;durP2;ratioP2;P2;SDS_P1;SDS_P2;PMS_P1;PMS_P2;Temp;Humidity;BMP_temperature;BMP_pressure;BME280_temperature;BME280_humidity;BME280_pressure;Samples;Min_cycle;Max_cycle;Signal;HPM_P1;HPM_P2
2022/06/24 00:02:11;;;;;;;5.75;4.35;;;;;;;24.22;48.97;100907.56;5084334;28;20513;-62
2022/06/24 00:04:40;;;;;;;4.72;4.28;;;;;;;24.22;48.79;100912.97;5084698;28;20497;-63
2022/06/24 00:07:15;;;;;;;5.20;3.78;;;;;;;24.22;48.84;100921.09;5085681;28;20425;-63
2022/06/24 00:09:44;;;;;;;5.72;3.00;;;;;;;24.20;48.79;100924.06;5080898;28;20931;-66
2022/06/24 00:12:14;;;;;;;4.68;2.70;;;;;;;24.20;48.89;100923.22;5085456;28;20417;-62
2022/06/24 00:14:45;;;;;;;4.22;3.17;;;;;;;24.18;48.91;100922.66;5067735;28;20497;-63
2022/06/24 00:17:14;;;;;;;3.85;2.90;;;;;;;24.16;49.03;100927.50;5083270;28;20450;-62
2022/06/24 00:19:55;;;;;;;3.13;2.80;;;;;;;24.11;49.13;100925.59;5080769;28;20913;-63
2022/06/24 00:22:23;;;;;;;4.63;2.80;;;;;;;24.11;48.99;100922.88;5082431;28;20513;-62
2022/06/24 00:25:08;;;;;;;4.20;2.90;;;;;;;24.11;49.25;100919.34;5072306;28;20424;-64
2022/06/24 00:27:35;;;;;;;3.53;2.83;;;;;;;24.11;49.04;100920.19;5099523;28;20404;-65
2022/06/24 00:30:09;;;;;;;4.68;3.00;;;;;;;24.09;48.95;100919.59;5092294;28;20410;-64
2022/06/24 00:32:36;;;;;;;4.28;2.80;;;;;;;24.08;48.94;100914.44;5096315;28;20412;-64
2022/06/24 00:35:04;;;;;;;3.55;2.80;;;;;;;24.05;48.84;100913.88;5093685;28;21020;-64
2022/06/24 00:37:33;;;;;;;4.03;2.90;;;;;;;24.03;49.10;100909.78;5084237;28;20414;-63
2022/06/24 00:40:25;;;;;;;3.22;2.90;;;;;;;24.01;49.12;100901.09;5072836;28;20972;-64
2022/06/24 00:42:52;;;;;;;4.05;2.88;;;;;;;24.00;49.21;100910.28;5089708;28;21580;-64
2022/06/24 00:45:29;;;;;;;3.42;2.90;;;;;;;23.99;49.09;100908.66;5088269;28;20631;-64
2022/06/24 00:47:57;;;;;;;4.63;2.80;;;;;;;23.95;49.07;100902.09;5091307;28;20512;-64
2022/06/24 00:52:58;;;;;;;3.67;2.80;;;;;;;23.95;49.16;100902.09;5094856;27;20402;-65
2022/06/24 00:55:27;;;;;;;4.28;2.53;;;;;;;23.93;49.25;100890.72;5082689;28;20434;-65
2022/06/24 00:57:54;;;;;;;4.90;2.80;;;;;;;23.90;49.20;100896.66;5086454;28;20418;-64
2022/06/24 01:00:24;;;;;;;3.55;2.90;;;;;;;23.89;49.32;100897.72;5085152;28;20863;-65
2022/06/24 01:02:57;;;;;;;3.33;2.75;;;;;;;23.88;49.31;100890.66;5075542;28;20501;-65
2022/06/24 01:05:24;;;;;;;3.15;2.67;;;;;;;23.82;49.31;100887.94;5082182;28;20497;-64
2022/06/24 01:07:51;;;;;;;5.05;2.70;;;;;;;23.81;49.42;100888.19;5086087;28;20868;-65
2022/06/24 01:10:20;;;;;;;3.95;2.95;;;;;;;23.78;49.41;100884.03;5083508;28;20489;-65
2022/06/24 01:12:47;;;;;;;3.60;2.67;;;;;;;23.74;49.51;100887.53;5073154;28;20479;-65
2022/06/24 01:15:14;;;;;;;5.28;3.33;;;;;;;23.72;49.85;100881.56;5084042;28;20836;-66
2022/06/24 01:17:41;;;;;;;3.83;2.40;;;;;;;23.73;49.68;100880.47;5083605;28;20498;-65
2022/06/24 01:20:10;;;;;;;3.50;2.73;;;;;;;23.68;49.85;100883.94;5083590;28;20493;-64
2022/06/24 01:22:39;;;;;;;5.53;2.90;;;;;;;23.67;49.83;100880.41;5082819;28;20418;-65
2022/06/24 01:25:08;;;;;;;3.90;2.67;;;;;;;23.67;49.57;100885.00;5078886;28;20490;-65
2022/06/24 01:27:35;;;;;;;3.03;2.60;;;;;;;23.64;49.97;100885.50;5079374;28;20422;-64
2022/06/24 01:30:44;;;;;;;4.88;2.90;;;;;;;23.61;49.71;100878.72;5069290;28;20404;-62
2022/06/24 01:34:50;;;;;;;4.90;2.90;;;;;;;23.60;50.14;100873.56;5058249;28;20404;-64
2022/06/24 01:37:17;;;;;;;3.92;2.60;;;;;;;23.61;50.01;100872.50;5066213;28;21009;-65
2022/06/24 01:39:44;;;;;;;4.70;2.70;;;;;;;23.62;49.91;100874.97;5065390;28;20416;-65
2022/06/24 01:42:12;;;;;;;3.13;2.80;;;;;;;23.61;49.96;100872.50;5060974;28;20417;-65
2022/06/24 01:44:38;;;;;;;3.80;2.60;;;;;;;23.62;49.88;100871.41;5066423;28;20423;-65
2022/06/24 01:47:06;;;;;;;3.60;2.72;;;;;;;23.58;50.00;100871.09;5056418;28;20926;-64
2022/06/24 01:49:33;;;;;;;4.25;2.80;;;;;;;23.58;49.90;100871.09;5063804;28;20503;-65
2022/06/24 01:52:01;;;;;;;5.90;2.60;;;;;;;23.58;49.97;100873.81;5062668;28;20502;-65
2022/06/24 01:54:28;;;;;;;6.20;3.20;;;;;;;23.56;50.34;100870.53;5060093;28;20474;-65
2022/06/24 01:56:56;;;;;;;4.00;2.60;;;;;;;23.56;50.18;100889.47;5054323;28;20503;-64
2022/06/24 01:59:23;;;;;;;4.15;2.80;;;;;;;23.58;50.19;100876.50;5066193;28;21217;-64
2022/06/24 02:01:50;;;;;;;3.95;2.75;;;;;;;23.58;50.32;100870.28;5060664;28;20449;-65
2022/06/24 02:04:17;;;;;;;3.90;2.70;;;;;;;23.55;50.35;100866.22;5064452;28;20868;-65
2022/06/24 02:09:11;;;;;;;5.55;2.70;;;;;;;23.53;50.27;100875.63;5095883;27;20822;-65
2022/06/24 02:14:24;;;;;;;3.88;2.80;;;;;;;23.50;50.34;100876.13;5078880;28;20417;-65
2022/06/24 02:16:52;;;;;;;3.60;2.85;;;;;;;23.48;50.50;100881.81;5073623;28;20417;-65
2022/06/24 02:19:20;;;;;;;5.55;2.90;;;;;;;23.48;50.17;100881.81;5071306;28;20427;-63
2022/06/24 02:21:47;;;;;;;3.95;2.97;;;;;;;23.50;50.21;100868.84;5080389;28;20422;-65
2022/06/24 02:24:15;;;;;;;4.70;2.75;;;;;;;23.49;50.54;100867.19;5078838;28;20424;-65
2022/06/24 02:26:43;;;;;;;4.50;2.88;;;;;;;23.47;50.33;100878.28;5086047;28;20882;-65
2022/06/24 02:29:10;;;;;;;4.75;3.00;;;;;;;23.46;50.26;100878.53;5075419;28;20521;-64
2022/06/24 02:31:38;;;;;;;6.13;3.45;;;;;;;23.45;50.54;100876.91;5084884;28;20429;-64
2022/06/24 02:34:04;;;;;;;5.43;3.05;;;;;;;23.41;50.34;100883.91;5084009;28;20414;-66
2022/06/24 02:36:31;;;;;;;4.00;3.07;;;;;;;23.39;50.48;100881.44;5076687;28;20446;-65
2022/06/24 02:38:58;;;;;;;3.15;2.85;;;;;;;23.37;50.86;100883.59;5085141;28;20428;-64
2022/06/24 02:41:27;;;;;;;3.30;2.92;;;;;;;23.34;50.85;100880.56;5085889;28;20795;-64
2022/06/24 02:43:54;;;;;;;5.30;3.28;;;;;;;23.30;50.77;100882.94;5081395;28;20416;-65
2022/06/24 02:46:20;;;;;;;6.18;3.00;;;;;;;23.29;50.92;100884.81;5074844;28;20499;-65
2022/06/24 02:48:47;;;;;;;4.60;2.90;;;;;;;23.29;50.63;100884.00;5085234;28;20516;-65
2022/06/24 02:51:16;;;;;;;4.03;2.95;;;;;;;23.27;50.67;100883.44;5085730;28;20414;-65
2022/06/24 02:53:43;;;;;;;3.97;2.90;;;;;;;23.27;50.64;100883.44;5081776;28;20418;-65
2022/06/24 02:56:13;;;;;;;5.70;2.95;;;;;;;23.25;50.86;100885.59;5085642;28;20480;-65
2022/06/24 02:58:42;;;;;;;4.20;3.17;;;;;;;23.23;50.85;100888.53;5073515;28;20414;-65
2022/06/24 03:01:10;;;;;;;6.70;3.47;;;;;;;23.24;50.69;100882.03;5085495;28;20490;-65
2022/06/24 03:03:37;;;;;;;3.88;3.00;;;;;;;23.24;51.12;100886.63;5085458;28;20493;-65
2022/06/24 03:06:05;;;;;;;4.80;3.35;;;;;;;23.28;50.78;100896.72;5078029;28;20507;-65
2022/06/24 03:08:32;;;;;;;5.28;3.30;;;;;;;23.36;50.54;100902.75;5084773;28;20873;-65
2022/06/24 03:10:59;;;;;;;3.92;3.00;;;;;;;23.42;50.44;100904.44;5081735;28;20508;-65
2022/06/24 03:13:28;;;;;;;5.25;3.05;;;;;;;23.47;50.59;100893.69;5077067;28;20499;-65
2022/06/24 03:15:56;;;;;;;4.03;3.20;;;;;;;23.54;50.21;100902.44;5079805;28;20426;-65
2022/06/24 03:18:24;;;;;;;5.90;3.05;;;;;;;23.61;50.04;100913.91;5084102;28;20509;-65
2022/06/24 03:20:51;;;;;;;4.80;3.28;;;;;;;23.69;49.82;100907.22;5070381;28;20423;-65
2022/06/24 03:23:18;;;;;;;4.20;3.28;;;;;;;23.75;49.86;100906.22;5061430;28;20418;-65
2022/06/24 03:25:45;;;;;;;4.67;3.30;;;;;;;23.83;49.80;100907.69;5071881;28;20831;-64
2022/06/24 03:28:12;;;;;;;4.25;3.30;;;;;;;23.91;49.71;100909.91;5066207;28;20610;-65
2022/06/24 03:30:40;;;;;;;4.78;3.10;;;;;;;23.94;49.15;100912.13;5071148;28;20426;-65
2022/06/24 03:33:08;;;;;;;6.07;3.20;;;;;;;24.01;49.29;100917.34;5067734;28;20423;-64
2022/06/24 03:35:35;;;;;;;4.97;3.30;;;;;;;24.09;48.85;100919.59;5052047;28;20491;-65
2022/06/24 03:38:02;;;;;;;4.57;3.20;;;;;;;24.18;48.81;100922.66;5065371;28;21023;-65
2022/06/24 03:40:29;;;;;;;4.50;3.15;;;;;;;24.23;48.69;100922.72;5058584;28;20418;-65
2022/06/24 03:42:56;;;;;;;6.20;3.08;;;;;;;24.29;48.41;100918.16;5058602;28;21005;-65
2022/06/24 03:45:23;;;;;;;5.22;3.40;;;;;;;24.40;48.15;100914.50;5056912;28;20475;-64
2022/06/24 03:47:50;;;;;;;5.78;3.72;;;;;;;24.51;47.81;100920.81;5060448;28;20511;-65
2022/06/24 03:50:19;;;;;;;5.00;3.30;;;;;;;24.58;47.69;100926.88;5053299;28;20418;-65
2022/06/24 03:52:46;;;;;;;7.82;3.42;;;;;;;24.65;47.65;100919.34;5055248;28;20499;-65
2022/06/24 03:55:13;;;;;;;6.22;3.53;;;;;;;24.78;47.37;100924.31;5054957;28;20501;-65
2022/06/24 03:57:40;;;;;;;4.47;3.27;;;;;;;24.88;47.18;100923.53;5055407;28;20499;-65
2022/06/24 04:00:08;;;;;;;5.72;3.72;;;;;;;24.97;47.03;100932.84;5052180;28;20590;-64
2022/06/24 04:02:35;;;;;;;5.47;3.72;;;;;;;25.11;46.59;100935.91;5057640;28;20419;-64
2022/06/24 04:05:02;;;;;;;6.77;3.57;;;;;;;25.23;46.33;100932.16;5056563;28;20460;-62
2022/06/24 04:07:31;;;;;;;4.38;3.53;;;;;;;25.33;46.40;100935.78;5054938;28;20415;-64
2022/06/24 04:09:58;;;;;;;6.03;3.95;;;;;;;25.45;46.04;100927.44;5053479;28;20571;-63
2022/06/24 04:12:25;;;;;;;5.15;3.55;;;;;;;25.56;45.82;100931.81;5053086;28;20425;-64
2022/06/24 04:17:36;;;;;;;5.53;3.85;;;;;;;25.85;45.53;100938.72;5050336;28;20404;-63
2022/06/24 04:20:03;;;;;;;5.73;3.73;;;;;;;26.01;45.29;100939.63;5055416;28;20993;-64
2022/06/24 04:22:31;;;;;;;6.03;3.72;;;;;;;26.18;44.83;100925.78;5067767;28;20434;-62
2022/06/24 04:24:58;;;;;;;4.93;3.77;;;;;;;26.42;44.43;100929.63;5063160;28;20500;-64
2022/06/24 04:27:25;;;;;;;5.80;3.63;;;;;;;26.66;43.95;100926.41;5065585;28;20498;-65
2022/06/24 04:29:52;;;;;;;6.07;4.13;;;;;;;26.78;43.56;100920.69;5069630;28;20415;-63
2022/06/24 04:32:19;;;;;;;5.82;4.10;;;;;;;26.97;43.29;100935.31;5057775;28;20504;-65
2022/06/24 04:34:46;;;;;;;8.10;4.07;;;;;;;27.14;42.74;100932.31;5069271;28;20598;-64
2022/06/24 04:37:13;;;;;;;7.07;4.32;;;;;;;27.27;42.95;100930.94;5067640;28;20447;-64
2022/06/24 04:39:43;;;;;;;6.68;4.28;;;;;;;27.44;42.23;100933.31;5069775;28;20450;-64
2022/06/24 04:42:10;;;;;;;7.00;4.60;;;;;;;27.56;42.37;100931.09;5069793;28;20861;-64
2022/06/24 04:44:37;;;;;;;5.80;4.43;;;;;;;27.68;42.25;100928.06;5065058;28;20506;-64
2022/06/24 04:47:04;;;;;;;7.30;4.13;;;;;;;27.83;41.47;100930.69;5061690;28;20872;-65
2022/06/24 04:49:32;;;;;;;6.03;4.45;;;;;;;27.93;41.59;100934.50;5052234;28;20499;-64
2022/06/24 04:52:00;;;;;;;7.25;4.75;;;;;;;27.99;41.77;100944.28;5055176;28;20498;-65
2022/06/24 04:54:45;;;;;;;5.80;4.70;;;;;;;28.07;41.41;100942.88;5055525;28;20503;-64
2022/06/24 04:57:14;;;;;;;6.97;5.55;;;;;;;28.21;41.17;100939.22;5051812;28;20504;-66
2022/06/24 04:59:41;;;;;;;5.75;5.10;;;;;;;28.36;41.08;100940.22;5057355;28;20499;-64
2022/06/24 05:02:08;;;;;;;7.00;5.57;;;;;;;28.41;40.83;100946.47;5058157;28;20430;-63
2022/06/24 05:04:35;;;;;;;9.43;5.40;;;;;;;28.55;40.98;100937.66;5066133;28;20413;-64
2022/06/24 05:07:02;;;;;;;9.52;5.03;;;;;;;28.71;40.80;100935.59;5063597;28;20500;-63
2022/06/24 05:09:29;;;;;;;7.78;4.90;;;;;;;28.93;40.12;100935.91;5061943;28;21025;-63
2022/06/24 05:11:56;;;;;;;5.30;4.22;;;;;;;29.08;40.01;100940.44;5054059;28;20938;-63
2022/06/24 05:14:24;;;;;;;6.18;4.35;;;;;;;29.35;39.38;100939.88;5068403;28;20415;-63
2022/06/24 05:16:51;;;;;;;6.38;4.03;;;;;;;29.60;38.67;100948.06;5057387;28;20994;-64
2022/06/24 05:19:18;;;;;;;4.90;3.90;;;;;;;29.79;38.60;100934.47;5049461;28;20430;-66
2022/06/24 05:21:45;;;;;;;5.03;3.72;;;;;;;29.98;38.17;100932.56;5058653;28;20540;-63
2022/06/24 05:24:12;;;;;;;4.18;3.30;;;;;;;30.23;37.51;100936.00;5065698;28;20414;-65
2022/06/24 05:26:41;;;;;;;5.30;3.30;;;;;;;30.43;36.60;100940.34;5054705;28;20418;-63
2022/06/24 05:29:08;;;;;;;4.93;3.28;;;;;;;30.85;36.04;100944.03;5048928;28;20524;-64
2022/06/24 05:31:37;;;;;;;4.50;2.90;;;;;;;31.47;34.76;100940.94;5058356;28;20465;-63
2022/06/24 05:34:04;;;;;;;5.03;3.10;;;;;;;32.22;33.72;100943.47;5053825;28;20444;-65
2022/06/24 05:36:31;;;;;;;4.35;3.30;;;;;;;32.87;32.73;100945.69;5062840;28;20403;-64
2022/06/24 05:38:59;;;;;;;3.72;3.10;;;;;;;33.56;31.60;100951.78;5052679;28;20491;-64
2022/06/24 05:41:26;;;;;;;4.32;3.00;;;;;;;34.37;30.16;100950.44;5054583;28;20420;-64
2022/06/24 05:43:53;;;;;;;4.75;3.05;;;;;;;35.11;29.46;100940.19;5049584;28;20422;-64
2022/06/24 05:46:20;;;;;;;4.07;2.90;;;;;;;35.75;28.11;100942.00;5050133;28;20500;-65
2022/06/24 05:48:48;;;;;;;5.65;2.95;;;;;;;36.39;27.60;100938.03;5052202;28;20515;-65
2022/06/24 05:51:17;;;;;;;5.57;2.80;;;;;;;36.93;26.32;100929.69;5048769;28;20523;-65
2022/06/24 05:56:30;;;;;;;4.13;2.45;;;;;;;38.46;24.21;100931.09;5049055;28;20933;-64
2022/06/24 05:58:57;;;;;;;3.95;2.60;;;;;;;39.00;23.60;100936.06;5048482;28;20914;-65
2022/06/24 06:01:24;;;;;;;4.38;2.47;;;;;;;39.61;22.47;100924.81;5054967;28;20491;-65
2022/06/24 06:03:53;;;;;;;9.50;2.33;;;;;;;39.95;21.87;100928.72;5047972;28;20498;-66
2022/06/24 06:06:20;;;;;;;3.20;2.22;;;;;;;40.47;20.74;100926.56;5050351;28;20499;-65
2022/06/24 06:08:47;;;;;;;3.10;2.43;;;;;;;40.89;20.61;100929.28;5053394;28;20434;-65
2022/06/24 06:11:15;;;;;;;5.43;2.50;;;;;;;41.43;19.73;100932.09;5065668;28;20411;-65
2022/06/24 06:13:43;;;;;;;2.38;2.08;;;;;;;41.87;18.94;100928.72;5054370;28;20495;-65
2022/06/24 06:16:11;;;;;;;4.15;2.45;;;;;;;42.35;18.88;100928.84;5058146;28;20416;-66
2022/06/24 06:18:38;;;;;;;3.38;2.20;;;;;;;42.76;18.38;100937.19;5056615;28;21003;-66
2022/06/24 06:21:08;;;;;;;6.18;2.80;;;;;;;43.15;18.20;100938.72;5062727;28;20541;-66
2022/06/24 06:23:37;;;;;;;4.32;2.60;;;;;;;43.53;18.14;100937.38;5048714;28;20898;-66
2022/06/24 06:26:05;;;;;;;4.03;2.40;;;;;;;43.79;17.43;100940.28;5055465;28;20517;-66
2022/06/24 06:28:32;;;;;;;2.37;2.10;;;;;;;44.12;17.33;100933.66;5048710;28;20499;-66
2022/06/24 06:31:00;;;;;;;2.72;2.50;;;;;;;44.51;16.71;100937.69;5048972;28;20930;-66
2022/06/24 06:33:27;;;;;;;2.60;2.20;;;;;;;44.84;16.16;100928.94;5050502;28;20867;-66
2022/06/24 06:36:02;;;;;;;3.63;2.47;;;;;;;45.10;16.12;100932.50;5049741;28;20423;-67
2022/06/24 06:38:31;;;;;;;3.17;2.20;;;;;;;45.06;16.01;100928.94;5048466;28;20970;-67
2022/06/24 06:40:58;;;;;;;4.28;2.40;;;;;;;45.20;15.40;100933.66;5048851;28;20487;-68
2022/06/24 06:43:25;;;;;;;2.60;2.40;;;;;;;45.32;15.14;100929.69;5048143;28;20414;-66
2022/06/24 06:45:53;;;;;;;3.10;2.30;;;;;;;45.46;15.48;100920.44;5057419;28;20506;-67
2022/06/24 06:48:20;;;;;;;2.50;2.30;;;;;;;45.52;14.69;100919.59;5068740;28;20411;-66
2022/06/24 06:50:47;;;;;;;3.08;2.30;;;;;;;45.39;14.57;100922.06;5063887;28;20476;-66
2022/06/24 06:53:14;;;;;;;2.58;2.30;;;;;;;45.28;14.91;100924.06;5059913;28;20421;-67
2022/06/24 06:55:42;;;;;;;4.33;3.23;;;;;;;44.88;15.16;100920.53;5056382;28;20416;-67
2022/06/24 06:58:09;;;;;;;4.47;2.65;;;;;;;44.23;15.54;100930.88;5052455;28;21002;-66
2022/06/24 07:00:36;;;;;;;2.92;2.33;;;;;;;43.65;16.03;100922.28;5055042;28;20507;-66
2022/06/24 07:03:03;;;;;;;3.90;2.40;;;;;;;42.88;16.69;100933.31;5061943;28;20518;-65
2022/06/24 07:05:31;;;;;;;3.90;2.57;;;;;;;42.32;17.21;100923.22;5068692;28;20493;-66
2022/06/24 07:07:58;;;;;;;3.40;2.50;;;;;;;41.47;17.89;100927.38;5070280;28;20419;-65
2022/06/24 07:10:25;;;;;;;3.30;2.40;;;;;;;40.99;18.38;100924.28;5069421;28;20506;-68
2022/06/24 07:12:53;;;;;;;4.53;2.80;;;;;;;40.58;19.11;100924.75;5071802;28;20411;-65
2022/06/24 07:15:20;;;;;;;3.30;2.42;;;;;;;40.10;19.29;100933.41;5066266;28;20502;-66
2022/06/24 07:17:47;;;;;;;3.53;2.60;;;;;;;39.61;20.08;100922.03;5062668;28;20498;-66
2022/06/24 07:20:14;;;;;;;2.47;2.17;;;;;;;39.08;20.04;100920.44;5068260;28;20506;-65
2022/06/24 07:22:42;;;;;;;2.53;2.30;;;;;;;38.64;20.67;100920.50;5069508;28;20415;-65
2022/06/24 07:25:09;;;;;;;4.13;2.70;;;;;;;38.29;21.04;100926.69;5066984;28;20928;-65
2022/06/24 07:27:36;;;;;;;3.33;2.20;;;;;;;37.86;21.21;100920.72;5061660;28;20411;-65
2022/06/24 07:31:48;;;;;;;2.50;2.22;;;;;;;37.22;22.10;100918.75;5060547;28;20826;-65
2022/06/24 07:34:15;;;;;;;3.25;2.25;;;;;;;36.79;22.63;100928.38;5064571;28;20511;-65
2022/06/24 07:36:42;;;;;;;3.80;2.55;;;;;;;36.60;23.07;100923.38;5063360;28;20419;-66
2022/06/24 07:39:10;;;;;;;2.88;2.20;;;;;;;35.85;23.28;100932.50;5059344;28;20422;-66
2022/06/24 07:41:37;;;;;;;2.70;2.25;;;;;;;35.76;23.72;100927.03;5065661;28;20463;-65
2022/06/24 07:44:04;;;;;;;5.20;3.10;;;;;;;35.48;24.05;100933.06;5064089;28;20884;-66
2022/06/24 07:46:31;;;;;;;4.35;2.70;;;;;;;35.28;24.31;100934.63;5066184;28;20455;-65
2022/06/24 07:49:02;;;;;;;3.60;2.30;;;;;;;35.13;24.37;100926.91;5052951;28;20933;-66
2022/06/24 07:51:30;;;;;;;4.68;2.67;;;;;;;35.03;24.63;100923.38;5055315;28;20998;-67
2022/06/24 07:53:57;;;;;;;4.85;2.63;;;;;;;34.96;25.20;100928.59;5065958;28;20487;-66
2022/06/24 07:59:08;;;;;;;3.80;2.67;;;;;;;34.74;25.11;100923.34;5053237;28;20408;-68
2022/06/24 08:01:36;;;;;;;4.25;2.50;;;;;;;34.60;25.51;100926.25;5057662;28;20860;-67
2022/06/24 08:04:07;;;;;;;4.03;2.40;;;;;;;34.60;25.86;100927.06;5061910;28;20512;-65
2022/06/24 08:06:35;;;;;;;4.00;2.20;;;;;;;34.58;24.69;100932.09;5053658;28;20450;-65
2022/06/24 08:09:03;;;;;;;3.30;2.50;;;;;;;34.52;24.60;100927.06;5048509;28;20783;-65
2022/06/24 08:11:31;;;;;;;3.88;3.40;;;;;;;34.45;25.50;100930.34;5062759;28;20862;-66
2022/06/24 08:13:58;;;;;;;3.78;2.42;;;;;;;34.39;24.89;100924.19;5054204;28;20505;-65
2022/06/24 08:16:25;;;;;;;2.40;2.20;;;;;;;34.28;24.71;100920.97;5064089;28;20499;-65
2022/06/24 08:18:53;;;;;;;3.00;2.13;;;;;;;34.23;24.49;100923.09;5060403;28;20501;-65
2022/06/24 08:21:21;;;;;;;2.77;1.80;;;;;;;34.11;24.58;100928.44;5051073;28;20506;-64
2022/06/24 08:23:48;;;;;;;2.37;1.90;;;;;;;33.95;24.79;100930.84;5058588;28;21018;-66
2022/06/24 08:26:16;;;;;;;2.25;1.80;;;;;;;33.92;24.90;100942.50;5050229;28;20491;-65
2022/06/24 08:28:43;;;;;;;3.10;1.80;;;;;;;33.79;25.03;100931.31;5057389;28;20473;-66
2022/06/24 08:31:10;;;;;;;3.25;1.80;;;;;;;33.75;25.40;100927.59;5058729;28;20806;-66
2022/06/24 08:33:37;;;;;;;3.05;2.20;;;;;;;33.71;24.87;100929.38;5056097;28;20407;-66
2022/06/24 08:36:05;;;;;;;4.57;2.20;;;;;;;33.75;25.29;100935.03;5063482;28;20510;-66
2022/06/24 08:38:33;;;;;;;2.92;2.10;;;;;;;33.78;24.49;100934.38;5057249;28;20558;-67
2022/06/24 08:41:02;;;;;;;4.38;2.60;;;;;;;33.83;25.11;100935.03;5054609;28;20903;-66
2022/06/24 08:43:32;;;;;;;2.70;1.80;;;;;;;33.82;24.78;100930.69;5051439;28;20438;-66
2022/06/24 08:46:00;;;;;;;3.35;2.78;;;;;;;33.77;24.00;100922.59;5046547;28;20806;-66
2022/06/24 08:48:28;;;;;;;3.53;2.50;;;;;;;33.75;24.32;100932.28;5052251;28;20496;-66
2022/06/24 08:50:57;;;;;;;2.23;1.77;;;;;;;33.59;23.45;100929.16;5048022;28;20426;-65
2022/06/24 08:53:26;;;;;;;2.95;1.85;;;;;;;33.65;23.91;100931.44;5039878;28;20420;-66
2022/06/24 08:55:54;;;;;;;2.40;1.90;;;;;;;33.70;24.55;100923.06;5037273;28;20797;-66
2022/06/24 08:58:22;;;;;;;3.53;2.10;;;;;;;33.78;24.98;100923.38;5052026;28;20574;-67
2022/06/24 09:00:49;;;;;;;3.92;2.00;;;;;;;33.71;25.38;100921.94;5038278;28;20497;-66
2022/06/24 09:03:16;;;;;;;3.88;2.05;;;;;;;33.71;25.24;100930.19;5045404;28;20498;-66
2022/06/24 09:05:43;;;;;;;2.90;1.90;;;;;;;33.74;24.98;100930.66;5031561;28;21033;-66
2022/06/24 09:08:11;;;;;;;3.08;1.92;;;;;;;33.79;24.91;100922.25;5045563;28;20414;-66
2022/06/24 09:10:40;;;;;;;2.58;1.90;;;;;;;33.83;24.03;100921.28;5031365;28;20839;-66
2022/06/24 09:13:20;;;;;;;2.60;1.70;;;;;;;33.87;24.32;100921.44;5047653;28;20503;-65
2022/06/24 09:15:52;;;;;;;2.17;1.83;;;;;;;33.88;24.14;100912.88;5041126;28;20422;-66
2022/06/24 09:18:21;;;;;;;2.83;1.60;;;;;;;33.80;23.45;100904.63;5031697;28;20418;-65
2022/06/24 09:20:50;;;;;;;1.83;1.65;;;;;;;33.68;23.34;100908.03;5031651;28;20415;-66
2022/06/24 09:23:17;;;;;;;2.10;1.75;;;;;;;33.56;23.41;100903.13;5031040;28;20450;-66
2022/06/24 09:25:46;;;;;;;2.83;1.65;;;;;;;33.36;23.39;100901.00;5039656;28;20943;-65
2022/06/24 09:28:22;;;;;;;2.73;1.53;;;;;;;33.04;23.75;100889.22;5036952;28;20456;-66
2022/06/24 09:30:49;;;;;;;2.13;1.50;;;;;;;33.13;23.22;100884.59;5042929;28;20441;-65
2022/06/24 09:33:18;;;;;;;2.17;1.60;;;;;;;33.12;23.23;100889.28;5045113;28;20409;-66
2022/06/24 09:35:45;;;;;;;2.05;1.42;;;;;;;33.10;22.96;100891.50;5037715;28;20503;-66
2022/06/24 09:38:12;;;;;;;2.05;1.60;;;;;;;33.17;23.55;100891.09;5037735;28;20995;-65
2022/06/24 09:40:41;;;;;;;2.00;1.50;;;;;;;33.25;23.06;100900.47;5031296;28;20839;-66
2022/06/24 09:43:09;;;;;;;3.73;2.20;;;;;;;33.25;23.17;100887.53;5030994;28;20450;-65
2022/06/24 09:45:46;;;;;;;1.90;1.50;;;;;;;33.29;22.12;100887.72;5050909;28;20420;-66
2022/06/24 09:48:26;;;;;;;2.10;1.70;;;;;;;33.33;22.91;100885.94;5036141;28;20521;-65
2022/06/24 09:50:54;;;;;;;3.45;1.70;;;;;;;33.20;22.68;100884.94;5047087;28;20814;-67
2022/06/24 09:53:22;;;;;;;2.53;1.52;;;;;;;33.21;21.92;100883.03;5043822;28;20418;-66
2022/06/24 09:55:49;;;;;;;2.35;1.35;;;;;;;33.17;21.84;100877.34;5047860;28;20495;-66
2022/06/24 09:58:17;;;;;;;2.33;1.80;;;;;;;33.06;22.83;100878.72;5037852;28;20497;-65
2022/06/24 10:00:46;;;;;;;4.40;1.95;;;;;;;33.11;23.15;100873.88;5032345;28;20501;-66
2022/06/24 10:03:14;;;;;;;2.85;1.52;;;;;;;33.22;22.41;100884.63;5043977;28;20419;-65
2022/06/24 10:05:43;;;;;;;2.63;1.40;;;;;;;33.24;22.83;100882.34;5041285;28;20495;-66
2022/06/24 10:08:12;;;;;;;3.00;1.50;;;;;;;33.13;22.63;100879.09;5044688;28;20448;-66
2022/06/24 10:10:43;;;;;;;1.60;1.50;;;;;;;33.09;22.75;100873.41;5044746;28;20437;-66
2022/06/24 10:13:16;;;;;;;2.33;1.60;;;;;;;33.17;22.68;100874.59;5038128;28;20806;-67
2022/06/24 10:15:43;;;;;;;3.10;1.60;;;;;;;33.24;22.71;100872.19;5037748;28;20414;-67
2022/06/24 10:18:13;;;;;;;3.70;1.70;;;;;;;33.33;22.43;100869.44;5031515;28;20501;-66
2022/06/24 10:20:43;;;;;;;2.00;1.48;;;;;;;33.41;22.91;100865.13;5039673;28;20409;-66
2022/06/24 10:23:43;;;;;;;2.05;1.50;;;;;;;33.49;22.62;100872.53;5032491;28;20491;-67
2022/06/24 10:26:12;;;;;;;1.73;1.40;;;;;;;33.58;22.46;100869.81;5031113;28;20451;-67
2022/06/24 10:29:21;;;;;;;3.63;1.70;;;;;;;33.52;22.52;100866.41;5033102;28;20860;-67
2022/06/24 10:32:02;;;;;;;3.03;1.80;;;;;;;33.53;22.61;100868.84;5037490;28;20503;-67
2022/06/24 10:34:36;;;;;;;2.30;1.67;;;;;;;33.59;22.50;100869.50;5041882;28;20416;-67
2022/06/24 10:37:08;;;;;;;2.58;1.70;;;;;;;33.48;22.57;100870.94;5042529;28;20412;-67
2022/06/24 10:39:45;;;;;;;2.20;1.60;;;;;;;33.51;22.63;100862.88;5038119;28;20426;-67
2022/06/24 10:42:14;;;;;;;2.23;1.40;;;;;;;33.61;22.90;100869.19;5035159;28;20433;-67
2022/06/24 10:44:55;;;;;;;3.08;1.50;;;;;;;33.38;22.32;100871.25;5042020;28;20416;-67
2022/06/24 10:47:28;;;;;;;2.05;1.40;;;;;;;33.27;22.36;100866.03;5046072;28;20425;-67
2022/06/24 10:50:15;;;;;;;3.20;1.50;;;;;;;33.40;22.74;100863.50;5041519;28;20417;-67
2022/06/24 10:52:55;;;;;;;1.65;1.55;;;;;;;33.36;22.77;100857.03;5034867;28;20426;-67
2022/06/24 10:55:49;;;;;;;3.13;1.50;;;;;;;33.13;22.76;100859.88;5039553;28;20416;-67
2022/06/24 10:58:18;;;;;;;1.75;1.50;;;;;;;33.05;22.98;100852.41;5035484;28;20931;-66
2022/06/24 11:00:54;;;;;;;1.98;1.55;;;;;;;33.03;22.95;100858.22;5030203;28;20832;-66
2022/06/24 11:03:28;;;;;;;1.92;1.50;;;;;;;33.21;22.88;100861.03;5035178;28;20447;-66
2022/06/24 11:05:57;;;;;;;4.00;2.30;;;;;;;33.17;22.70;100862.78;5031806;28;20423;-66
2022/06/24 11:08:25;;;;;;;2.85;1.70;;;;;;;33.00;22.67;100856.09;5042260;28;20447;-66
2022/06/24 11:10:53;;;;;;;1.77;1.60;;;;;;;33.01;22.90;100844.00;5028677;28;20513;-67
2022/06/24 11:13:23;;;;;;;2.60;1.50;;;;;;;32.78;23.04;100851.50;5039629;28;20413;-66
2022/06/24 11:15:52;;;;;;;1.60;1.50;;;;;;;32.89;22.69;100852.81;5047950;28;20404;-66
2022/06/24 11:18:21;;;;;;;2.58;1.50;;;;;;;33.08;23.19;100855.31;5038555;28;20533;-66
2022/06/24 11:20:49;;;;;;;2.53;1.60;;;;;;;33.13;23.09;100855.22;5030129;28;20506;-66
2022/06/24 11:23:20;;;;;;;1.70;1.60;;;;;;;33.20;22.43;100851.16;5031637;28;20509;-67
2022/06/24 11:25:49;;;;;;;2.10;1.70;;;;;;;33.10;23.08;100861.31;5030299;28;20468;-66
2022/06/24 11:28:21;;;;;;;3.10;2.80;;;;;;;33.22;22.81;100857.16;5033578;28;20505;-66
2022/06/24 11:30:48;;;;;;;2.60;1.87;;;;;;;33.09;23.23;100854.19;5029574;28;20510;-66
2022/06/24 11:33:19;;;;;;;5.38;3.15;;;;;;;33.20;23.55;100859.41;5032507;28;20414;-67
2022/06/24 11:35:47;;;;;;;2.85;2.10;;;;;;;33.31;22.87;100858.81;5032687;28;20442;-67
2022/06/24 11:38:15;;;;;;;2.00;1.80;;;;;;;33.34;22.84;100865.59;5032495;28;20406;-67
2022/06/24 11:40:45;;;;;;;2.38;1.60;;;;;;;33.39;22.64;100862.69;5028446;28;21007;-66
2022/06/24 11:43:15;;;;;;;1.95;1.40;;;;;;;33.44;22.83;100862.53;5028580;28;20883;-67
2022/06/24 11:45:45;;;;;;;1.92;1.70;;;;;;;33.48;23.11;100862.69;5029700;28;20414;-66
2022/06/24 11:48:13;;;;;;;4.00;1.50;;;;;;;33.58;22.86;100867.06;5029156;28;20489;-66
2022/06/24 11:50:40;;;;;;;1.90;1.70;;;;;;;33.61;22.54;100852.69;5031179;28;20578;-66
2022/06/24 11:53:08;;;;;;;4.72;2.50;;;;;;;33.65;21.89;100853.66;5028750;28;20502;-66